sensor_id;sensor_type;location;lat;lon;timestamp;pressure;altitude;pressure_sealevel;temperature;humidity
53300;BME280;39187;48.476;8.310;2024-03-08T00:02:00;90907.34;;;-0.65;100.00
53300;BME280;39187;48.476;8.310;2024-03-08T00:04:25;90895.69;;;-0.71;100.00
53300;BME280;39187;48.476;8.310;2024-03-08T00:06:51;90914.09;;;-0.87;100.00
53300;BME280;39187;48.476;8.310;2024-03-08T00:09:16;90904.28;;;-0.71;100.00
53300;BME280;39187;48.476;8.310;2024-03-08T00:11:42;90900.13;;;-0.98;100.00
53300;BME280;39187;48.476;8.310;2024-03-08T00:14:07;90906.69;;;-0.85;100.00
53300;BME280;39187;48.476;8.310;2024-03-08T00:16:33;90901.34;;;-0.92;100.00
53300;BME280;39187;48.476;8.310;2024-03-08T00:18:59;90912.47;;;-0.95;100.00
53300;BME280;39187;48.476;8.310;2024-03-08T00:21:25;90902.09;;;-0.92;100.00
53300;BME280;39187;48.476;8.310;2024-03-08T00:23:52;90909.34;;;-0.82;100.00
53300;BME280;39187;48.476;8.310;2024-03-08T00:26:20;90896.66;;;-1.06;100.00
53300;BME280;39187;48.476;8.310;2024-03-08T00:28:48;90895.47;;;-1.08;100.00
53300;BME280;39187;48.476;8.310;2024-03-08T00:31:14;90896.63;;;-0.83;100.00
53300;BME280;39187;48.476;8.310;2024-03-08T00:33:42;90895.59;;;-1.01;100.00
53300;BME280;39187;48.476;8.310;2024-03-08T00:36:08;90880.75;;;-0.97;100.00
53300;BME280;39187;48.476;8.310;2024-03-08T00:38:33;90890.03;;;-1.00;100.00
53300;BME280;39187;48.476;8.310;2024-03-08T00:41:00;90883.34;;;-0.97;100.00
53300;BME280;39187;48.476;8.310;2024-03-08T00:43:25;90877.19;;;-0.86;100.00
53300;BME280;39187;48.476;8.310;2024-03-08T00:45:51;90878.47;;;-0.99;100.00
53300;BME280;39187;48.476;8.310;2024-03-08T00:48:17;90881.53;;;-0.93;100.00
53300;BME280;39187;48.476;8.310;2024-03-08T00:50:42;90877.38;;;-0.98;100.00
53300;BME280;39187;48.476;8.310;2024-03-08T00:53:11;90865.50;;;-1.18;100.00
53300;BME280;39187;48.476;8.310;2024-03-08T00:55:37;90855.16;;;-1.11;100.00
53300;BME280;39187;48.476;8.310;2024-03-08T00:58:03;90871.78;;;-1.23;100.00
53300;BME280;39187;48.476;8.310;2024-03-08T01:00:29;90865.78;;;-1.23;100.00
53300;BME280;39187;48.476;8.310;2024-03-08T01:02:54;90859.75;;;-1.27;100.00
53300;BME280;39187;48.476;8.310;2024-03-08T01:05:21;90874.09;;;-1.17;100.00
53300;BME280;39187;48.476;8.310;2024-03-08T01:07:46;90856.91;;;-1.18;100.00
53300;BME280;39187;48.476;8.310;2024-03-08T01:10:12;90858.47;;;-1.14;100.00
53300;BME280;39187;48.476;8.310;2024-03-08T01:12:38;90860.47;;;-1.30;100.00
53300;BME280;39187;48.476;8.310;2024-03-08T01:15:04;90852.38;;;-1.22;100.00
53300;BME280;39187;48.476;8.310;2024-03-08T01:17:30;90852.28;;;-1.29;100.00
53300;BME280;39187;48.476;8.310;2024-03-08T01:19:56;90853.19;;;-1.40;100.00
53300;BME280;39187;48.476;8.310;2024-03-08T01:22:21;90852.50;;;-1.37;100.00
53300;BME280;39187;48.476;8.310;2024-03-08T01:24:48;90838.75;;;-1.34;100.00
53300;BME280;39187;48.476;8.310;2024-03-08T01:27:14;90836.06;;;-1.41;100.00
53300;BME280;39187;48.476;8.310;2024-03-08T01:29:39;90830.91;;;-1.34;100.00
53300;BME280;39187;48.476;8.310;2024-03-08T01:32:05;90837.72;;;-1.52;100.00
53300;BME280;39187;48.476;8.310;2024-03-08T01:34:31;90825.66;;;-1.38;100.00
53300;BME280;39187;48.476;8.310;2024-03-08T01:36:58;90826.25;;;-1.48;100.00
53300;BME280;39187;48.476;8.310;2024-03-08T01:39:25;90815.31;;;-1.53;100.00
53300;BME280;39187;48.476;8.310;2024-03-08T01:41:50;90828.97;;;-1.64;100.00
53300;BME280;39187;48.476;8.310;2024-03-08T01:44:16;90825.59;;;-1.41;100.00
53300;BME280;39187;48.476;8.310;2024-03-08T01:46:46;90808.19;;;-1.34;100.00
53300;BME280;39187;48.476;8.310;2024-03-08T01:49:12;90807.38;;;-1.38;100.00
53300;BME280;39187;48.476;8.310;2024-03-08T01:51:38;90812.25;;;-1.59;100.00
53300;BME280;39187;48.476;8.310;2024-03-08T01:54:06;90796.22;;;-1.61;100.00
53300;BME280;39187;48.476;8.310;2024-03-08T01:56:32;90794.69;;;-1.62;100.00
53300;BME280;39187;48.476;8.310;2024-03-08T01:58:59;90808.44;;;-1.65;100.00
53300;BME280;39187;48.476;8.310;2024-03-08T02:01:26;90786.69;;;-1.50;100.00
53300;BME280;39187;48.476;8.310;2024-03-08T02:03:52;90784.84;;;-1.72;100.00
53300;BME280;39187;48.476;8.310;2024-03-08T02:06:18;90781.31;;;-1.60;100.00
53300;BME280;39187;48.476;8.310;2024-03-08T02:08:44;90778.94;;;-1.69;100.00
53300;BME280;39187;48.476;8.310;2024-03-08T02:11:10;90773.44;;;-1.87;100.00
53300;BME280;39187;48.476;8.310;2024-03-08T02:13:36;90772.44;;;-1.79;100.00
53300;BME280;39187;48.476;8.310;2024-03-08T02:16:02;90776.44;;;-1.85;100.00
53300;BME280;39187;48.476;8.310;2024-03-08T02:18:29;90762.97;;;-1.64;100.00
53300;BME280;39187;48.476;8.310;2024-03-08T02:20:59;90785.75;;;-1.84;100.00
53300;BME280;39187;48.476;8.310;2024-03-08T02:23:25;90771.88;;;-1.69;100.00
53300;BME280;39187;48.476;8.310;2024-03-08T02:25:52;90762.59;;;-1.89;100.00
53300;BME280;39187;48.476;8.310;2024-03-08T02:28:19;90761.31;;;-1.76;100.00
53300;BME280;39187;48.476;8.310;2024-03-08T02:30:45;90760.38;;;-1.87;100.00
53300;BME280;39187;48.476;8.310;2024-03-08T02:33:15;90747.47;;;-1.80;100.00
53300;BME280;39187;48.476;8.310;2024-03-08T02:35:47;90755.56;;;-1.85;100.00
53300;BME280;39187;48.476;8.310;2024-03-08T02:38:13;90754.94;;;-2.01;100.00
53300;BME280;39187;48.476;8.310;2024-03-08T02:40:42;90751.91;;;-2.03;100.00
53300;BME280;39187;48.476;8.310;2024-03-08T02:43:09;90754.97;;;-2.20;100.00
53300;BME280;39187;48.476;8.310;2024-03-08T02:45:35;90749.31;;;-2.03;100.00
53300;BME280;39187;48.476;8.310;2024-03-08T02:48:00;90748.97;;;-2.02;100.00
53300;BME280;39187;48.476;8.310;2024-03-08T02:50:26;90756.63;;;-2.12;100.00
53300;BME280;39187;48.476;8.310;2024-03-08T02:52:51;90744.38;;;-2.08;100.00
53300;BME280;39187;48.476;8.310;2024-03-08T02:55:17;90739.94;;;-2.08;100.00
53300;BME280;39187;48.476;8.310;2024-03-08T02:57:43;90740.03;;;-2.00;100.00
53300;BME280;39187;48.476;8.310;2024-03-08T03:00:15;90729.16;;;-2.06;100.00
53300;BME280;39187;48.476;8.310;2024-03-08T03:02:41;90725.44;;;-2.05;100.00
53300;BME280;39187;48.476;8.310;2024-03-08T03:05:08;90726.59;;;-2.03;100.00
53300;BME280;39187;48.476;8.310;2024-03-08T03:07:35;90724.75;;;-2.02;100.00
53300;BME280;39187;48.476;8.310;2024-03-08T03:10:01;90724.06;;;-1.99;100.00
53300;BME280;39187;48.476;8.310;2024-03-08T03:12:30;90719.69;;;-2.14;100.00
53300;BME280;39187;48.476;8.310;2024-03-08T03:14:56;90730.03;;;-1.98;100.00
53300;BME280;39187;48.476;8.310;2024-03-08T03:17:26;90717.25;;;-2.04;100.00
53300;BME280;39187;48.476;8.310;2024-03-08T03:19:52;90716.44;;;-2.30;100.00
53300;BME280;39187;48.476;8.310;2024-03-08T03:22:18;90716.91;;;-2.02;100.00
53300;BME280;39187;48.476;8.310;2024-03-08T03:24:45;90715.28;;;-2.10;100.00
53300;BME280;39187;48.476;8.310;2024-03-08T03:27:12;90714.59;;;-2.07;100.00
53300;BME280;39187;48.476;8.310;2024-03-08T03:29:41;90713.69;;;-2.18;100.00
53300;BME280;39187;48.476;8.310;2024-03-08T03:32:11;90704.53;;;-2.09;100.00
53300;BME280;39187;48.476;8.310;2024-03-08T03:34:38;90702.13;;;-2.17;100.00
53300;BME280;39187;48.476;8.310;2024-03-08T03:37:04;90687.97;;;-2.20;100.00
53300;BME280;39187;48.476;8.310;2024-03-08T03:39:30;90707.84;;;-2.12;100.00
53300;BME280;39187;48.476;8.310;2024-03-08T03:42:00;90704.16;;;-2.30;100.00
53300;BME280;39187;48.476;8.310;2024-03-08T03:44:28;90705.97;;;-2.11;100.00
53300;BME280;39187;48.476;8.310;2024-03-08T03:46:53;90701.22;;;-2.06;100.00
53300;BME280;39187;48.476;8.310;2024-03-08T03:49:19;90690.69;;;-2.13;100.00
53300;BME280;39187;48.476;8.310;2024-03-08T03:51:45;90696.75;;;-1.82;100.00
53300;BME280;39187;48.476;8.310;2024-03-08T03:54:11;90688.00;;;-1.93;100.00
53300;BME280;39187;48.476;8.310;2024-03-08T03:56:37;90687.38;;;-2.10;100.00
53300;BME280;39187;48.476;8.310;2024-03-08T03:59:02;90691.16;;;-2.07;100.00
53300;BME280;39187;48.476;8.310;2024-03-08T04:01:28;90696.88;;;-1.98;100.00
53300;BME280;39187;48.476;8.310;2024-03-08T04:03:54;90689.81;;;-2.20;100.00
53300;BME280;39187;48.476;8.310;2024-03-08T04:06:20;90689.78;;;-1.97;100.00
53300;BME280;39187;48.476;8.310;2024-03-08T04:08:45;90675.53;;;-1.81;100.00
53300;BME280;39187;48.476;8.310;2024-03-08T04:11:11;90681.69;;;-2.15;100.00
53300;BME280;39187;48.476;8.310;2024-03-08T04:13:37;90685.41;;;-2.16;100.00
53300;BME280;39187;48.476;8.310;2024-03-08T04:16:03;90681.81;;;-2.08;100.00
53300;BME280;39187;48.476;8.310;2024-03-08T04:18:31;90673.06;;;-2.19;100.00
53300;BME280;39187;48.476;8.310;2024-03-08T04:20:57;90680.16;;;-2.20;100.00
53300;BME280;39187;48.476;8.310;2024-03-08T04:23:22;90676.31;;;-2.03;100.00
53300;BME280;39187;48.476;8.310;2024-03-08T04:25:48;90678.69;;;-2.17;100.00
53300;BME280;39187;48.476;8.310;2024-03-08T04:28:13;90670.22;;;-1.88;100.00
53300;BME280;39187;48.476;8.310;2024-03-08T04:30:39;90663.03;;;-1.94;100.00
53300;BME280;39187;48.476;8.310;2024-03-08T04:33:05;90660.50;;;-2.14;100.00
53300;BME280;39187;48.476;8.310;2024-03-08T04:35:32;90660.97;;;-2.08;100.00
53300;BME280;39187;48.476;8.310;2024-03-08T04:37:58;90662.41;;;-2.11;100.00
53300;BME280;39187;48.476;8.310;2024-03-08T04:40:23;90661.94;;;-1.93;100.00
53300;BME280;39187;48.476;8.310;2024-03-08T04:42:49;90660.09;;;-1.93;100.00
53300;BME280;39187;48.476;8.310;2024-03-08T04:45:17;90657.06;;;-1.95;100.00
53300;BME280;39187;48.476;8.310;2024-03-08T04:47:43;90662.28;;;-1.95;100.00
53300;BME280;39187;48.476;8.310;2024-03-08T04:50:08;90654.06;;;-2.20;100.00
53300;BME280;39187;48.476;8.310;2024-03-08T04:52:34;90645.34;;;-2.31;100.00
53300;BME280;39187;48.476;8.310;2024-03-08T04:55:01;90653.84;;;-2.34;100.00
53300;BME280;39187;48.476;8.310;2024-03-08T04:57:29;90662.13;;;-2.51;100.00
53300;BME280;39187;48.476;8.310;2024-03-08T04:59:55;90650.25;;;-2.26;100.00
53300;BME280;39187;48.476;8.310;2024-03-08T05:02:20;90649.84;;;-2.05;100.00
53300;BME280;39187;48.476;8.310;2024-03-08T05:04:48;90649.53;;;-2.00;100.00
53300;BME280;39187;48.476;8.310;2024-03-08T05:07:13;90650.34;;;-1.96;100.00
53300;BME280;39187;48.476;8.310;2024-03-08T05:09:39;90654.53;;;-2.14;100.00
53300;BME280;39187;48.476;8.310;2024-03-08T05:12:06;90651.28;;;-2.08;100.00
53300;BME280;39187;48.476;8.310;2024-03-08T05:14:32;90648.16;;;-2.39;100.00
53300;BME280;39187;48.476;8.310;2024-03-08T05:16:57;90638.03;;;-2.45;100.00
53300;BME280;39187;48.476;8.310;2024-03-08T05:19:22;90644.19;;;-2.33;100.00
53300;BME280;39187;48.476;8.310;2024-03-08T05:21:49;90643.19;;;-2.48;100.00
53300;BME280;39187;48.476;8.310;2024-03-08T05:24:16;90644.44;;;-2.16;100.00
53300;BME280;39187;48.476;8.310;2024-03-08T05:26:42;90641.81;;;-2.19;100.00
53300;BME280;39187;48.476;8.310;2024-03-08T05:29:10;90633.09;;;-2.50;100.00
53300;BME280;39187;48.476;8.310;2024-03-08T05:31:46;90638.03;;;-2.45;100.00
53300;BME280;39187;48.476;8.310;2024-03-08T05:34:12;90635.06;;;-2.43;100.00
53300;BME280;39187;48.476;8.310;2024-03-08T05:36:40;90636.13;;;-2.48;100.00
53300;BME280;39187;48.476;8.310;2024-03-08T05:39:06;90634.09;;;-2.35;100.00
53300;BME280;39187;48.476;8.310;2024-03-08T05:41:32;90644.19;;;-2.56;100.00
53300;BME280;39187;48.476;8.310;2024-03-08T05:43:58;90637.34;;;-2.64;100.00
53300;BME280;39187;48.476;8.310;2024-03-08T05:46:23;90640.19;;;-2.50;100.00
53300;BME280;39187;48.476;8.310;2024-03-08T05:48:48;90634.22;;;-2.51;100.00
53300;BME280;39187;48.476;8.310;2024-03-08T05:51:14;90635.94;;;-2.35;100.00
53300;BME280;39187;48.476;8.310;2024-03-08T05:53:39;90636.25;;;-2.40;100.00
53300;BME280;39187;48.476;8.310;2024-03-08T05:56:05;90640.56;;;-2.48;100.00
53300;BME280;39187;48.476;8.310;2024-03-08T05:58:31;90632.88;;;-2.41;100.00
53300;BME280;39187;48.476;8.310;2024-03-08T06:00:56;90634.97;;;-2.50;100.00
53300;BME280;39187;48.476;8.310;2024-03-08T06:03:22;90637.50;;;-2.54;100.00
53300;BME280;39187;48.476;8.310;2024-03-08T06:05:51;90636.50;;;-2.68;100.00
53300;BME280;39187;48.476;8.310;2024-03-08T06:08:16;90635.41;;;-2.67;100.00
53300;BME280;39187;48.476;8.310;2024-03-08T06:10:41;90637.91;;;-2.52;100.00
53300;BME280;39187;48.476;8.310;2024-03-08T06:13:07;90637.63;;;-2.47;100.00
53300;BME280;39187;48.476;8.310;2024-03-08T06:15:32;90630.06;;;-2.32;100.00
53300;BME280;39187;48.476;8.310;2024-03-08T06:17:59;90627.44;;;-2.32;100.00
53300;BME280;39187;48.476;8.310;2024-03-08T06:20:25;90631.16;;;-2.33;100.00
53300;BME280;39187;48.476;8.310;2024-03-08T06:22:52;90635.50;;;-2.64;100.00
53300;BME280;39187;48.476;8.310;2024-03-08T06:25:17;90638.97;;;-2.56;100.00
53300;BME280;39187;48.476;8.310;2024-03-08T06:27:43;90635.19;;;-2.59;100.00
53300;BME280;39187;48.476;8.310;2024-03-08T06:30:10;90626.22;;;-2.38;100.00
53300;BME280;39187;48.476;8.310;2024-03-08T06:32:38;90629.19;;;-2.40;100.00
53300;BME280;39187;48.476;8.310;2024-03-08T06:35:05;90626.63;;;-2.59;100.00
53300;BME280;39187;48.476;8.310;2024-03-08T06:37:34;90635.78;;;-2.69;100.00
53300;BME280;39187;48.476;8.310;2024-03-08T06:40:00;90631.88;;;-2.56;100.00
53300;BME280;39187;48.476;8.310;2024-03-08T06:42:29;90629.78;;;-2.50;100.00
53300;BME280;39187;48.476;8.310;2024-03-08T06:44:59;90635.38;;;-2.48;100.00
53300;BME280;39187;48.476;8.310;2024-03-08T06:47:29;90634.72;;;-2.42;100.00
53300;BME280;39187;48.476;8.310;2024-03-08T06:49:55;90626.28;;;-2.58;100.00
53300;BME280;39187;48.476;8.310;2024-03-08T06:52:20;90625.28;;;-2.50;100.00
53300;BME280;39187;48.476;8.310;2024-03-08T06:54:47;90625.66;;;-2.51;100.00
53300;BME280;39187;48.476;8.310;2024-03-08T06:57:13;90630.78;;;-2.55;100.00
53300;BME280;39187;48.476;8.310;2024-03-08T06:59:39;90627.03;;;-2.57;100.00
53300;BME280;39187;48.476;8.310;2024-03-08T07:02:04;90622.41;;;-2.45;100.00
53300;BME280;39187;48.476;8.310;2024-03-08T07:04:30;90617.47;;;-2.50;100.00
53300;BME280;39187;48.476;8.310;2024-03-08T07:06:56;90625.69;;;-2.48;100.00
53300;BME280;39187;48.476;8.310;2024-03-08T07:09:25;90624.44;;;-2.34;100.00
53300;BME280;39187;48.476;8.310;2024-03-08T07:11:51;90630.91;;;-2.25;100.00
53300;BME280;39187;48.476;8.310;2024-03-08T07:14:23;90614.53;;;-2.25;100.00
53300;BME280;39187;48.476;8.310;2024-03-08T07:16:49;90621.13;;;-2.31;100.00
53300;BME280;39187;48.476;8.310;2024-03-08T07:19:15;90617.00;;;-2.55;100.00
53300;BME280;39187;48.476;8.310;2024-03-08T07:21:41;90617.25;;;-2.41;100.00
53300;BME280;39187;48.476;8.310;2024-03-08T07:24:07;90606.53;;;-2.59;100.00
53300;BME280;39187;48.476;8.310;2024-03-08T07:26:45;90613.72;;;-2.52;100.00
53300;BME280;39187;48.476;8.310;2024-03-08T07:29:15;90609.50;;;-2.37;100.00
53300;BME280;39187;48.476;8.310;2024-03-08T07:31:40;90604.50;;;-2.46;100.00
53300;BME280;39187;48.476;8.310;2024-03-08T07:34:06;90613.75;;;-2.49;100.00
53300;BME280;39187;48.476;8.310;2024-03-08T07:36:33;90604.41;;;-2.53;100.00
53300;BME280;39187;48.476;8.310;2024-03-08T07:39:00;90609.13;;;-2.36;100.00
53300;BME280;39187;48.476;8.310;2024-03-08T07:41:26;90605.03;;;-2.37;100.00
53300;BME280;39187;48.476;8.310;2024-03-08T07:43:51;90608.84;;;-2.31;100.00
53300;BME280;39187;48.476;8.310;2024-03-08T07:46:17;90609.53;;;-2.34;100.00
53300;BME280;39187;48.476;8.310;2024-03-08T07:48:44;90606.91;;;-2.37;100.00
53300;BME280;39187;48.476;8.310;2024-03-08T07:51:10;90596.66;;;-2.23;100.00
53300;BME280;39187;48.476;8.310;2024-03-08T07:53:38;90605.88;;;-2.29;100.00
53300;BME280;39187;48.476;8.310;2024-03-08T07:56:04;90596.69;;;-1.97;100.00
53300;BME280;39187;48.476;8.310;2024-03-08T07:58:32;90606.22;;;-2.08;100.00
53300;BME280;39187;48.476;8.310;2024-03-08T08:00:58;90601.34;;;-2.10;100.00
53300;BME280;39187;48.476;8.310;2024-03-08T08:03:23;90598.91;;;-2.25;100.00
53300;BME280;39187;48.476;8.310;2024-03-08T08:05:49;90591.09;;;-1.99;100.00
53300;BME280;39187;48.476;8.310;2024-03-08T08:08:14;90606.97;;;-2.30;100.00
53300;BME280;39187;48.476;8.310;2024-03-08T08:10:40;90600.00;;;-2.00;100.00
53300;BME280;39187;48.476;8.310;2024-03-08T08:13:06;90585.41;;;-2.05;100.00
53300;BME280;39187;48.476;8.310;2024-03-08T08:15:31;90596.94;;;-2.06;100.00
53300;BME280;39187;48.476;8.310;2024-03-08T08:18:00;90586.66;;;-2.21;100.00
53300;BME280;39187;48.476;8.310;2024-03-08T08:20:25;90584.72;;;-2.02;100.00
53300;BME280;39187;48.476;8.310;2024-03-08T08:22:53;90581.66;;;-2.07;100.00
53300;BME280;39187;48.476;8.310;2024-03-08T08:25:20;90580.69;;;-1.95;100.00
53300;BME280;39187;48.476;8.310;2024-03-08T08:27:46;90579.34;;;-2.12;100.00
53300;BME280;39187;48.476;8.310;2024-03-08T08:30:12;90576.09;;;-2.06;100.00
53300;BME280;39187;48.476;8.310;2024-03-08T08:32:39;90578.09;;;-1.95;100.00
53300;BME280;39187;48.476;8.310;2024-03-08T08:35:05;90572.84;;;-1.69;100.00
53300;BME280;39187;48.476;8.310;2024-03-08T08:37:32;90578.13;;;-1.92;100.00
53300;BME280;39187;48.476;8.310;2024-03-08T08:39:58;90574.47;;;-1.61;100.00
53300;BME280;39187;48.476;8.310;2024-03-08T08:42:24;90579.44;;;-1.49;100.00
53300;BME280;39187;48.476;8.310;2024-03-08T08:44:49;90582.41;;;-1.50;100.00
53300;BME280;39187;48.476;8.310;2024-03-08T08:47:16;90576.75;;;-1.56;100.00
53300;BME280;39187;48.476;8.310;2024-03-08T08:49:44;90571.84;;;-1.61;100.00
53300;BME280;39187;48.476;8.310;2024-03-08T08:52:12;90566.00;;;-1.51;100.00
53300;BME280;39187;48.476;8.310;2024-03-08T08:54:37;90572.09;;;-1.40;100.00
53300;BME280;39187;48.476;8.310;2024-03-08T08:57:03;90566.00;;;-1.51;100.00
53300;BME280;39187;48.476;8.310;2024-03-08T08:59:36;90561.69;;;-1.36;100.00
53300;BME280;39187;48.476;8.310;2024-03-08T09:02:02;90569.38;;;-1.47;100.00
53300;BME280;39187;48.476;8.310;2024-03-08T09:04:31;90571.06;;;-1.32;100.00
53300;BME280;39187;48.476;8.310;2024-03-08T09:06:57;90569.78;;;-1.45;100.00
53300;BME280;39187;48.476;8.310;2024-03-08T09:09:23;90561.28;;;-1.42;100.00
53300;BME280;39187;48.476;8.310;2024-03-08T09:11:48;90565.31;;;-1.48;100.00
53300;BME280;39187;48.476;8.310;2024-03-08T09:14:15;90568.72;;;-1.40;100.00
53300;BME280;39187;48.476;8.310;2024-03-08T09:16:41;90575.97;;;-1.27;100.00
53300;BME280;39187;48.476;8.310;2024-03-08T09:19:06;90569.81;;;-1.11;100.00
53300;BME280;39187;48.476;8.310;2024-03-08T09:21:33;90579.38;;;-1.52;100.00
53300;BME280;39187;48.476;8.310;2024-03-08T09:24:00;90574.88;;;-1.26;100.00
53300;BME280;39187;48.476;8.310;2024-03-08T09:26:25;90571.66;;;-1.45;100.00
53300;BME280;39187;48.476;8.310;2024-03-08T09:28:52;90560.38;;;-1.53;100.00
53300;BME280;39187;48.476;8.310;2024-03-08T09:31:17;90570.91;;;-1.46;100.00
53300;BME280;39187;48.476;8.310;2024-03-08T09:33:43;90558.66;;;-1.42;100.00
53300;BME280;39187;48.476;8.310;2024-03-08T09:36:08;90556.97;;;-1.57;100.00
53300;BME280;39187;48.476;8.310;2024-03-08T09:38:34;90555.53;;;-1.54;100.00
53300;BME280;39187;48.476;8.310;2024-03-08T09:41:00;90553.16;;;-1.33;100.00
53300;BME280;39187;48.476;8.310;2024-03-08T09:43:28;90546.94;;;-1.22;100.00
53300;BME280;39187;48.476;8.310;2024-03-08T09:45:54;90553.44;;;-1.42;100.00
53300;BME280;39187;48.476;8.310;2024-03-08T09:48:21;90555.41;;;-1.32;100.00
53300;BME280;39187;48.476;8.310;2024-03-08T09:50:48;90549.44;;;-1.32;100.00
53300;BME280;39187;48.476;8.310;2024-03-08T09:53:14;90544.44;;;-1.11;100.00
53300;BME280;39187;48.476;8.310;2024-03-08T09:55:40;90538.81;;;-1.16;100.00
53300;BME280;39187;48.476;8.310;2024-03-08T09:58:11;90534.78;;;-1.07;100.00
53300;BME280;39187;48.476;8.310;2024-03-08T10:00:55;90538.44;;;-0.78;100.00
53300;BME280;39187;48.476;8.310;2024-03-08T10:03:27;90529.28;;;-0.98;100.00
53300;BME280;39187;48.476;8.310;2024-03-08T10:05:52;90524.63;;;-0.75;100.00
53300;BME280;39187;48.476;8.310;2024-03-08T10:08:22;90527.44;;;-0.50;100.00
53300;BME280;39187;48.476;8.310;2024-03-08T10:10:47;90527.22;;;-0.34;100.00
53300;BME280;39187;48.476;8.310;2024-03-08T10:13:15;90521.72;;;-0.66;100.00
53300;BME280;39187;48.476;8.310;2024-03-08T10:15:42;90510.47;;;-0.26;100.00
53300;BME280;39187;48.476;8.310;2024-03-08T10:18:07;90510.06;;;-0.28;100.00
53300;BME280;39187;48.476;8.310;2024-03-08T10:20:34;90508.91;;;-0.34;100.00
53300;BME280;39187;48.476;8.310;2024-03-08T10:23:06;90503.75;;;-0.24;100.00
53300;BME280;39187;48.476;8.310;2024-03-08T10:25:32;90511.06;;;-0.47;100.00
53300;BME280;39187;48.476;8.310;2024-03-08T10:27:58;90505.53;;;-0.38;100.00
53300;BME280;39187;48.476;8.310;2024-03-08T10:30:24;90502.97;;;-0.28;100.00
53300;BME280;39187;48.476;8.310;2024-03-08T10:32:49;90502.91;;;-0.38;100.00
53300;BME280;39187;48.476;8.310;2024-03-08T10:35:17;90507.50;;;-0.18;100.00
53300;BME280;39187;48.476;8.310;2024-03-08T10:37:49;90502.91;;;-0.38;100.00
53300;BME280;39187;48.476;8.310;2024-03-08T10:40:24;90506.06;;;-0.12;100.00
53300;BME280;39187;48.476;8.310;2024-03-08T10:42:54;90499.44;;;0.05;100.00
53300;BME280;39187;48.476;8.310;2024-03-08T10:45:38;90498.25;;;-0.05;100.00
53300;BME280;39187;48.476;8.310;2024-03-08T10:48:32;90495.69;;;-0.01;100.00
53300;BME280;39187;48.476;8.310;2024-03-08T10:51:03;90496.84;;;0.09;100.00
53300;BME280;39187;48.476;8.310;2024-03-08T10:53:29;90498.38;;;0.20;100.00
53300;BME280;39187;48.476;8.310;2024-03-08T10:55:58;90497.25;;;0.14;100.00
53300;BME280;39187;48.476;8.310;2024-03-08T10:58:27;90501.50;;;0.47;100.00
53300;BME280;39187;48.476;8.310;2024-03-08T11:00:54;90500.06;;;-0.16;100.00
53300;BME280;39187;48.476;8.310;2024-03-08T11:03:53;90499.22;;;0.35;100.00
53300;BME280;39187;48.476;8.310;2024-03-08T11:06:41;90489.50;;;0.39;100.00
53300;BME280;39187;48.476;8.310;2024-03-08T11:09:30;90492.53;;;0.45;100.00
53300;BME280;39187;48.476;8.310;2024-03-08T11:12:24;90489.59;;;0.57;100.00
53300;BME280;39187;48.476;8.310;2024-03-08T11:14:52;90483.28;;;0.75;100.00
53300;BME280;39187;48.476;8.310;2024-03-08T11:19:48;90473.25;;;1.16;100.00
53300;BME280;39187;48.476;8.310;2024-03-08T11:22:29;90487.72;;;0.57;100.00
53300;BME280;39187;48.476;8.310;2024-03-08T11:25:04;90482.47;;;0.50;100.00
53300;BME280;39187;48.476;8.310;2024-03-08T11:27:38;90481.75;;;0.67;100.00
53300;BME280;39187;48.476;8.310;2024-03-08T11:30:07;90481.78;;;0.85;100.00
53300;BME280;39187;48.476;8.310;2024-03-08T11:32:50;90477.13;;;0.32;100.00
53300;BME280;39187;48.476;8.310;2024-03-08T11:35:23;90480.69;;;0.83;100.00
53300;BME280;39187;48.476;8.310;2024-03-08T11:37:48;90481.47;;;1.01;100.00
53300;BME280;39187;48.476;8.310;2024-03-08T11:40:15;90472.38;;;0.59;100.00
53300;BME280;39187;48.476;8.310;2024-03-08T11:42:46;90481.81;;;0.89;100.00
53300;BME280;39187;48.476;8.310;2024-03-08T11:45:17;90470.22;;;1.04;100.00
53300;BME280;39187;48.476;8.310;2024-03-08T11:47:43;90476.97;;;1.05;100.00
53300;BME280;39187;48.476;8.310;2024-03-08T11:50:11;90462.75;;;1.48;100.00
53300;BME280;39187;48.476;8.310;2024-03-08T11:52:37;90456.41;;;1.42;100.00
53300;BME280;39187;48.476;8.310;2024-03-08T11:55:03;90459.00;;;1.03;100.00
53300;BME280;39187;48.476;8.310;2024-03-08T11:57:30;90461.66;;;1.42;100.00
53300;BME280;39187;48.476;8.310;2024-03-08T11:59:57;90459.78;;;1.32;100.00
53300;BME280;39187;48.476;8.310;2024-03-08T12:02:24;90457.91;;;1.40;100.00
53300;BME280;39187;48.476;8.310;2024-03-08T12:05:00;90446.28;;;1.62;100.00
53300;BME280;39187;48.476;8.310;2024-03-08T12:07:31;90442.50;;;1.88;100.00
53300;BME280;39187;48.476;8.310;2024-03-08T12:10:17;90446.19;;;2.08;100.00
53300;BME280;39187;48.476;8.310;2024-03-08T12:12:48;90435.06;;;1.05;100.00
53300;BME280;39187;48.476;8.310;2024-03-08T12:15:15;90441.44;;;1.39;100.00
53300;BME280;39187;48.476;8.310;2024-03-08T12:17:43;90438.06;;;1.46;100.00
53300;BME280;39187;48.476;8.310;2024-03-08T12:20:16;90443.28;;;1.78;100.00
53300;BME280;39187;48.476;8.310;2024-03-08T12:22:44;90442.88;;;1.86;100.00
53300;BME280;39187;48.476;8.310;2024-03-08T12:25:13;90441.03;;;1.76;100.00
53300;BME280;39187;48.476;8.310;2024-03-08T12:27:39;90433.56;;;1.43;100.00
53300;BME280;39187;48.476;8.310;2024-03-08T12:32:54;90421.53;;;1.77;100.00
53300;BME280;39187;48.476;8.310;2024-03-08T12:35:22;90416.34;;;1.38;100.00
53300;BME280;39187;48.476;8.310;2024-03-08T12:37:50;90416.28;;;1.67;100.00
53300;BME280;39187;48.476;8.310;2024-03-08T12:40:17;90405.09;;;1.31;100.00
53300;BME280;39187;48.476;8.310;2024-03-08T12:42:44;90408.03;;;1.82;100.00
53300;BME280;39187;48.476;8.310;2024-03-08T12:45:09;90399.09;;;1.48;100.00
53300;BME280;39187;48.476;8.310;2024-03-08T12:47:35;90396.84;;;1.57;100.00
53300;BME280;39187;48.476;8.310;2024-03-08T12:50:02;90402.13;;;1.32;100.00
53300;BME280;39187;48.476;8.310;2024-03-08T12:52:28;90383.75;;;1.32;100.00
53300;BME280;39187;48.476;8.310;2024-03-08T12:54:55;90382.63;;;1.44;100.00
53300;BME280;39187;48.476;8.310;2024-03-08T12:57:21;90377.72;;;1.64;100.00
53300;BME280;39187;48.476;8.310;2024-03-08T12:59:46;90388.53;;;1.87;100.00